createdAt,value
2019-03-12T00:00:54.538Z,90.81
2019-03-12T00:01:54.528Z,90.70
2019-03-12T00:02:54.513Z,90.91
2019-03-12T00:03:54.494Z,89.87
2019-03-12T00:04:54.492Z,90.08
2019-03-12T00:05:54.494Z,90.02
2019-03-12T00:06:54.467Z,89.92
2019-03-12T00:07:54.459Z,90.33
2019-03-12T00:08:54.435Z,90.33
2019-03-12T00:09:54.433Z,90.54
2019-03-12T00:10:54.447Z,90.33
2019-03-12T00:11:54.413Z,90.08
2019-03-12T00:12:54.412Z,89.92
2019-03-12T00:13:54.399Z,90.29
2019-03-12T00:14:54.419Z,90.08
2019-03-12T00:15:54.372Z,90.39
2019-03-12T00:16:54.367Z,90.33
2019-03-12T00:17:54.370Z,89.98
2019-03-12T00:18:54.341Z,89.92
2019-03-12T00:19:54.328Z,89.92
2019-03-12T00:20:54.344Z,90.44
2019-03-12T00:21:54.311Z,89.87
2019-03-12T00:22:54.307Z,90.39
2019-03-12T00:23:54.294Z,89.98
2019-03-12T00:24:54.286Z,90.23
2019-03-12T00:25:54.263Z,90.44
2019-03-12T00:26:54.292Z,89.46
2019-03-12T00:27:54.240Z,89.39
2019-03-12T00:28:54.252Z,88.67
2019-03-12T00:29:54.229Z,88.98
2019-03-12T00:30:54.226Z,88.87
2019-03-12T00:31:54.201Z,88.98
2019-03-12T00:32:55.725Z,89.08
2019-03-12T00:33:54.185Z,88.98
2019-03-12T00:34:54.175Z,88.25
2019-03-12T00:35:54.183Z,88.56
2019-03-12T00:36:54.153Z,88.09
2019-03-12T00:37:54.169Z,87.98
2019-03-12T00:38:54.124Z,88.50
2019-03-12T00:39:54.116Z,88.19
2019-03-12T00:40:54.111Z,88.40
2019-03-12T00:41:54.109Z,88.09
2019-03-12T00:42:54.102Z,88.71
2019-03-12T00:43:54.109Z,89.12
2019-03-12T00:44:54.070Z,89.23
2019-03-12T00:45:54.053Z,89.37
2019-03-12T00:46:54.053Z,88.92
2019-03-12T00:47:54.047Z,88.96
2019-03-12T00:48:54.044Z,89.23
2019-03-12T00:49:54.044Z,89.23
2019-03-12T00:50:54.038Z,88.81
2019-03-12T00:51:53.992Z,89.33
2019-03-12T00:52:53.989Z,89.43
2019-03-12T00:53:53.989Z,88.92
2019-03-12T00:54:53.995Z,89.12
2019-03-12T00:55:53.962Z,89.02
2019-03-12T00:56:53.964Z,88.81
2019-03-12T00:57:53.931Z,89.02
2019-03-12T00:58:53.922Z,88.81
2019-03-12T00:59:56.271Z,89.43
2019-03-12T01:00:53.896Z,89.33
2019-03-12T01:01:53.930Z,89.43
2019-03-12T01:02:53.883Z,89.43
2019-03-12T01:03:53.869Z,89.12
2019-03-12T01:04:53.863Z,88.40
2019-03-12T01:05:53.855Z,88.29
2019-03-12T01:06:53.846Z,88.71
2019-03-12T01:07:53.860Z,88.81
2019-03-12T01:08:53.824Z,88.81
2019-03-12T01:09:53.804Z,89.23
2019-03-12T01:10:53.802Z,89.43
2019-03-12T01:11:53.787Z,89.43
2019-03-12T01:12:53.794Z,89.39
2019-03-12T01:13:53.770Z,89.39
2019-03-12T01:14:53.759Z,88.98
2019-03-12T01:15:53.749Z,89.02
2019-03-12T01:16:53.746Z,88.98
2019-03-12T01:17:53.751Z,88.77
2019-03-12T01:18:53.712Z,88.77
2019-03-12T01:19:53.710Z,88.98
2019-03-12T01:20:53.702Z,88.98
2019-03-12T01:21:53.682Z,88.98
2019-03-12T01:22:53.695Z,88.46
2019-03-12T01:23:53.665Z,88.67
2019-03-12T01:24:53.649Z,88.77
2019-03-12T01:25:53.650Z,88.98
2019-03-12T01:26:53.635Z,88.98
2019-03-12T01:27:53.653Z,88.87
2019-03-12T01:28:53.621Z,88.62
2019-03-12T01:29:53.603Z,88.98
2019-03-12T01:30:53.588Z,88.84
2019-03-12T01:31:53.577Z,88.94
2019-03-12T01:32:53.601Z,88.94
2019-03-12T01:33:53.574Z,88.94
2019-03-12T01:34:53.571Z,89.15
2019-03-12T01:35:53.551Z,89.08
2019-03-12T01:36:53.548Z,88.67
2019-03-12T01:37:53.530Z,88.73
2019-03-12T01:38:53.540Z,88.84
2019-03-12T01:39:53.527Z,89.04
2019-03-12T01:40:53.511Z,89.15
2019-03-12T01:41:53.490Z,88.94
2019-03-12T01:42:53.488Z,88.73
2019-03-12T01:43:53.495Z,88.94
2019-03-12T01:44:53.456Z,88.98
2019-03-12T01:45:53.451Z,88.56
2019-03-12T01:46:53.434Z,88.98
2019-03-12T01:47:53.427Z,88.94
2019-03-12T01:48:53.418Z,88.94
2019-03-12T01:49:53.434Z,88.94
2019-03-12T01:50:53.392Z,88.42
2019-03-12T01:51:53.383Z,88.52
2019-03-12T01:52:53.369Z,88.73
2019-03-12T01:53:53.353Z,87.90
2019-03-12T01:54:53.371Z,88.42
2019-03-12T01:55:53.329Z,88.42
2019-03-12T01:56:53.320Z,88.10
2019-03-12T01:57:53.317Z,88.31
2019-03-12T01:58:53.303Z,88.31
2019-03-12T01:59:53.307Z,88.42
2019-03-12T02:00:53.313Z,88.00
2019-03-12T02:01:53.268Z,87.79
2019-03-12T02:02:53.254Z,87.38
2019-03-12T02:03:53.246Z,87.59
2019-03-12T02:04:53.237Z,87.17
2019-03-12T02:05:53.251Z,88.21
2019-03-12T02:06:53.219Z,87.69
2019-03-12T02:07:53.203Z,87.17
2019-03-12T02:08:53.191Z,87.69
2019-03-12T02:09:53.187Z,88.00
2019-03-12T02:10:53.205Z,87.79
2019-03-12T02:11:53.174Z,87.48
2019-03-12T02:12:53.158Z,87.69
2019-03-12T02:13:53.147Z,87.38
2019-03-12T02:14:53.133Z,87.69
2019-03-12T02:15:53.121Z,87.48
2019-03-12T02:16:53.129Z,87.69
2019-03-12T02:17:53.112Z,87.38
2019-03-12T02:18:53.096Z,87.69
2019-03-12T02:19:53.085Z,87.59
2019-03-12T02:20:53.079Z,87.48
2019-03-12T02:21:53.090Z,87.48
2019-03-12T02:22:53.053Z,87.59
2019-03-12T02:23:53.044Z,87.38
2019-03-12T02:24:53.282Z,87.59
2019-03-12T02:25:53.028Z,87.59
2019-03-12T02:26:53.010Z,87.59
2019-03-12T02:27:53.020Z,87.65
2019-03-12T02:28:52.990Z,86.72
2019-03-12T02:29:52.988Z,86.61
2019-03-12T02:30:52.992Z,87.13
2019-03-12T02:31:52.963Z,86.61
2019-03-12T02:32:52.970Z,86.30
2019-03-12T02:33:52.935Z,86.93
2019-03-12T02:34:52.928Z,86.41
2019-03-12T02:35:52.934Z,86.51
2019-03-12T02:36:52.902Z,86.61
2019-03-12T02:37:52.901Z,86.41
2019-03-12T02:38:52.909Z,86.93
2019-03-12T02:39:52.875Z,87.13
2019-03-12T02:40:52.859Z,87.55
2019-03-12T02:41:52.878Z,87.86
2019-03-12T02:42:52.845Z,87.59
2019-03-12T02:43:52.859Z,87.79
2019-03-12T02:44:52.835Z,87.48
2019-03-12T02:45:52.812Z,86.86
2019-03-12T02:46:52.802Z,87.24
2019-03-12T02:47:52.814Z,87.13
2019-03-12T02:48:52.781Z,87.24
2019-03-12T02:49:52.784Z,87.13
2019-03-12T02:50:52.798Z,87.03
2019-03-12T02:51:52.758Z,86.72
2019-03-12T02:52:52.750Z,86.51
2019-03-12T02:53:52.729Z,86.93
2019-03-12T02:54:52.717Z,86.82
2019-03-12T02:55:52.736Z,87.13
2019-03-12T02:56:52.704Z,86.82
2019-03-12T02:57:52.689Z,87.65
2019-03-12T02:58:52.694Z,87.55
2019-03-12T02:59:52.663Z,87.55
2019-03-12T03:00:52.696Z,87.09
2019-03-12T03:01:52.648Z,86.82
2019-03-12T03:02:52.661Z,86.72
2019-03-12T03:03:52.632Z,86.57
2019-03-12T03:04:54.186Z,86.57
2019-03-12T03:05:52.599Z,86.72
2019-03-12T03:06:52.608Z,86.19
2019-03-12T03:07:52.605Z,86.41
2019-03-12T03:08:52.571Z,86.30
2019-03-12T03:09:52.606Z,85.68
2019-03-12T03:10:52.558Z,85.88
2019-03-12T03:11:52.558Z,86.30
2019-03-12T03:12:52.534Z,86.26
2019-03-12T03:13:52.522Z,86.47
2019-03-12T03:14:52.530Z,86.36
2019-03-12T03:15:52.513Z,86.88
2019-03-12T03:16:52.513Z,86.93
2019-03-12T03:17:52.472Z,86.88
2019-03-12T03:18:52.462Z,87.34
2019-03-12T03:19:52.450Z,87.13
2019-03-12T03:20:52.443Z,86.82
2019-03-12T03:21:52.465Z,86.57
2019-03-12T03:22:52.454Z,86.72
2019-03-12T03:23:52.423Z,87.03
2019-03-12T03:24:52.406Z,86.82
2019-03-12T03:25:52.389Z,87.45
2019-03-12T03:26:52.398Z,87.86
2019-03-12T03:27:52.407Z,87.34
2019-03-12T03:28:52.390Z,87.13
2019-03-12T03:29:52.349Z,87.13
2019-03-12T03:30:52.338Z,87.24
2019-03-12T03:31:52.335Z,87.51
2019-03-12T03:32:52.324Z,87.82
2019-03-12T03:33:52.337Z,87.92
2019-03-12T03:34:52.317Z,87.13
2019-03-12T03:35:52.296Z,87.55
2019-03-12T03:36:52.285Z,87.34
2019-03-12T03:37:52.267Z,87.13
2019-03-12T03:38:52.286Z,87.55
2019-03-12T03:39:52.249Z,88.07
2019-03-12T03:40:52.256Z,87.86
2019-03-12T03:41:52.251Z,88.07
2019-03-12T03:42:52.226Z,87.30
2019-03-12T03:43:52.210Z,88.17
2019-03-12T03:44:52.200Z,87.92
2019-03-12T03:45:52.213Z,87.86
2019-03-12T03:46:52.204Z,87.71
2019-03-12T03:47:52.172Z,87.82
2019-03-12T03:48:52.161Z,87.51
2019-03-12T03:49:52.145Z,87.09
2019-03-12T03:50:52.167Z,87.71
2019-03-12T03:51:52.146Z,87.92
2019-03-12T03:52:52.171Z,87.82
2019-03-12T03:53:52.108Z,87.30
2019-03-12T03:54:52.095Z,87.09
2019-03-12T03:55:52.102Z,87.40
2019-03-12T03:56:52.101Z,87.61
2019-03-12T03:57:52.061Z,87.61
2019-03-12T03:58:52.053Z,86.78
2019-03-12T03:59:52.043Z,87.09
2019-03-12T04:00:52.036Z,86.78
2019-03-12T04:01:52.052Z,86.88
2019-03-12T04:02:52.100Z,87.71
2019-03-12T04:03:52.010Z,86.88
2019-03-12T04:04:51.991Z,86.47
2019-03-12T04:05:51.986Z,86.36
2019-03-12T04:06:51.977Z,86.88
2019-03-12T04:07:51.993Z,86.78
2019-03-12T04:08:51.961Z,86.88
2019-03-12T04:09:51.942Z,86.99
2019-03-12T04:10:51.927Z,86.57
2019-03-12T04:11:51.918Z,86.68
2019-03-12T04:12:51.903Z,87.09
2019-03-12T04:13:51.933Z,86.78
2019-03-12T04:14:51.889Z,86.85
2019-03-12T04:15:51.871Z,86.88
2019-03-12T04:16:51.863Z,86.57
2019-03-12T04:17:51.858Z,86.78
2019-03-12T04:18:51.865Z,86.99
2019-03-12T04:19:51.855Z,86.57
2019-03-12T04:20:51.827Z,87.09
2019-03-12T04:21:51.810Z,87.09
2019-03-12T04:22:52.268Z,86.57
2019-03-12T04:23:51.827Z,86.36
2019-03-12T04:24:51.784Z,86.57
2019-03-12T04:25:51.773Z,86.68
2019-03-12T04:26:51.766Z,86.88
2019-03-12T04:27:51.752Z,86.99
2019-03-12T04:28:51.741Z,86.26
2019-03-12T04:29:51.758Z,86.57
2019-03-12T04:30:51.713Z,86.36
2019-03-12T04:31:51.711Z,86.57
2019-03-12T04:32:51.706Z,86.22
2019-03-12T04:33:51.688Z,85.29
2019-03-12T04:34:51.671Z,85.53
2019-03-12T04:35:51.677Z,85.53
2019-03-12T04:36:51.655Z,85.33
2019-03-12T04:37:51.646Z,85.33
2019-03-12T04:38:51.638Z,85.22
2019-03-12T04:39:51.646Z,85.33
2019-03-12T04:40:51.621Z,85.50
2019-03-12T04:41:51.600Z,85.02
2019-03-12T04:42:51.596Z,85.02
2019-03-12T04:43:51.581Z,85.43
2019-03-12T04:44:51.588Z,85.43
2019-03-12T04:45:51.564Z,85.29
2019-03-12T04:46:51.556Z,85.08
2019-03-12T04:47:51.534Z,85.33
2019-03-12T04:48:51.528Z,85.33
2019-03-12T04:49:51.551Z,85.33
2019-03-12T04:50:51.520Z,85.53
2019-03-12T04:51:51.501Z,85.53
2019-03-12T04:52:51.490Z,85.29
2019-03-12T04:53:51.474Z,85.08
2019-03-12T04:54:51.461Z,85.33
2019-03-12T04:56:00.029Z,85.19
2019-03-12T04:56:51.448Z,85.12
2019-03-12T04:57:51.439Z,85.19
2019-03-12T04:58:51.431Z,85.53
2019-03-12T04:59:51.412Z,85.39
2019-03-12T05:00:51.425Z,85.29
2019-03-12T05:01:51.394Z,85.08
2019-03-12T05:02:51.394Z,84.70
2019-03-12T05:03:51.395Z,84.39
2019-03-12T05:04:51.356Z,83.98
2019-03-12T05:05:51.374Z,84.50
2019-03-12T05:06:51.338Z,84.39
2019-03-12T05:07:51.333Z,84.08
2019-03-12T05:08:51.339Z,84.29
2019-03-12T05:09:51.316Z,84.39
2019-03-12T05:10:51.331Z,83.98
2019-03-12T05:11:59.650Z,84.08
2019-03-12T05:12:51.274Z,84.39
2019-03-12T05:13:51.271Z,84.29
2019-03-12T05:14:51.343Z,83.87
2019-03-12T05:15:51.251Z,84.08
2019-03-12T05:16:51.261Z,84.08
2019-03-12T05:17:51.230Z,83.77
2019-03-12T05:18:51.216Z,83.77
2019-03-12T05:19:51.207Z,83.56
2019-03-12T05:20:51.210Z,82.53
2019-03-12T05:21:51.216Z,82.01
2019-03-12T05:22:51.171Z,82.63
2019-03-12T05:23:51.163Z,82.42
2019-03-12T05:24:51.149Z,82.21
2019-03-12T05:25:51.169Z,82.21
2019-03-12T05:26:51.151Z,82.01
2019-03-12T05:27:51.147Z,82.32
2019-03-12T05:28:51.115Z,82.53
2019-03-12T05:29:51.100Z,81.70
2019-03-12T05:30:51.085Z,81.18
2019-03-12T05:31:51.081Z,81.07
2019-03-12T05:32:51.192Z,81.07
2019-03-12T05:33:51.054Z,81.28
2019-03-12T05:34:51.045Z,81.49
2019-03-12T05:35:51.050Z,81.59
2019-03-12T05:36:51.028Z,80.76
2019-03-12T05:37:51.050Z,81.28
2019-03-12T05:38:51.014Z,81.49
2019-03-12T05:39:51.000Z,81.18
2019-03-12T05:40:50.990Z,81.18
2019-03-12T05:41:50.978Z,80.97
2019-03-12T05:42:50.965Z,80.87
2019-03-12T05:43:50.976Z,80.97
2019-03-12T05:44:50.999Z,80.97
2019-03-12T05:45:50.936Z,80.87
2019-03-12T05:46:50.925Z,80.87
2019-03-12T05:47:50.914Z,81.28
2019-03-12T05:48:50.920Z,81.07
2019-03-12T05:49:50.927Z,80.55
2019-03-12T05:50:50.885Z,80.87
2019-03-12T05:51:50.871Z,80.87
2019-03-12T05:52:50.892Z,80.97
2019-03-12T05:53:50.845Z,80.97
2019-03-12T05:54:50.841Z,80.97
2019-03-12T05:55:50.847Z,80.97
2019-03-12T05:56:50.823Z,81.07
2019-03-12T05:57:50.812Z,81.28
2019-03-12T05:58:50.799Z,81.07
2019-03-12T05:59:50.793Z,81.28
2019-03-12T06:00:50.800Z,81.28
2019-03-12T06:01:50.763Z,81.28
2019-03-12T06:02:50.756Z,81.28
2019-03-12T06:03:50.747Z,81.28
2019-03-12T06:04:50.740Z,81.07
2019-03-12T06:05:51.349Z,80.55
2019-03-12T06:06:50.716Z,81.07
2019-03-12T06:07:50.709Z,81.38
2019-03-12T06:08:50.691Z,81.70
2019-03-12T06:09:50.692Z,81.76
2019-03-12T06:10:50.700Z,81.35
2019-03-12T06:11:50.666Z,81.18
2019-03-12T06:12:50.661Z,81.38
2019-03-12T06:13:50.642Z,80.24
2019-03-12T06:14:50.632Z,79.69
2019-03-12T06:15:53.235Z,77.54
2019-03-12T06:16:50.603Z,78.89
2019-03-12T06:17:50.603Z,79.10
2019-03-12T06:18:50.589Z,79.10
2019-03-12T06:19:50.575Z,78.37
2019-03-12T06:20:50.596Z,77.72
2019-03-12T06:21:50.565Z,77.82
2019-03-12T06:22:50.546Z,77.20
2019-03-12T06:23:50.551Z,77.92
2019-03-12T06:24:50.534Z,78.55
2019-03-12T06:25:50.513Z,78.34
2019-03-12T06:26:50.525Z,78.86
2019-03-12T06:27:50.487Z,79.17
2019-03-12T06:28:50.482Z,79.27
2019-03-12T06:29:50.481Z,78.61
2019-03-12T06:30:50.467Z,79.06
2019-03-12T06:31:50.499Z,79.24
2019-03-12T06:32:50.444Z,79.24
2019-03-12T06:33:50.427Z,79.24
2019-03-12T06:34:50.423Z,79.13
2019-03-12T06:35:50.422Z,79.55
2019-03-12T06:36:50.406Z,79.06
2019-03-12T06:37:50.690Z,79.58
2019-03-12T06:38:50.384Z,79.79
2019-03-12T06:39:50.369Z,79.75
2019-03-12T06:40:50.463Z,79.65
2019-03-12T06:41:50.350Z,79.85
2019-03-12T06:42:50.366Z,80.47
2019-03-12T06:43:50.340Z,80.06
2019-03-12T06:44:50.328Z,79.24
2019-03-12T06:45:50.311Z,79.65
2019-03-12T06:46:50.295Z,78.72
2019-03-12T06:47:50.335Z,79.24
2019-03-12T06:48:50.281Z,78.92
2019-03-12T06:49:50.272Z,79.20
2019-03-12T06:50:50.257Z,79.55
2019-03-12T06:51:50.241Z,79.10
2019-03-12T06:52:50.237Z,78.92
2019-03-12T06:53:50.247Z,78.99
2019-03-12T06:54:50.220Z,78.89
2019-03-12T06:55:50.208Z,78.89
2019-03-12T06:56:50.196Z,78.99
2019-03-12T06:57:50.182Z,78.37
2019-03-12T06:58:50.201Z,78.99
2019-03-12T06:59:50.162Z,79.71
2019-03-12T07:00:50.156Z,79.71
2019-03-12T07:01:50.145Z,79.61
2019-03-12T07:02:50.133Z,79.20
2019-03-12T07:03:50.153Z,79.41
2019-03-12T07:04:50.115Z,79.71
2019-03-12T07:05:50.095Z,79.85
2019-03-12T07:06:50.092Z,80.16
2019-03-12T07:07:50.085Z,80.47
2019-03-12T07:08:50.075Z,80.68
2019-03-12T07:09:50.079Z,80.89
2019-03-12T07:10:50.046Z,80.79
2019-03-12T07:11:50.042Z,80.89
2019-03-12T07:12:50.062Z,80.68
2019-03-12T07:13:50.030Z,81.41
2019-03-12T07:14:50.050Z,80.99
2019-03-12T07:15:50.030Z,81.20
2019-03-12T07:16:49.991Z,81.20
2019-03-12T07:17:49.978Z,80.99
2019-03-12T07:18:49.974Z,81.27
2019-03-12T07:19:49.968Z,80.51
2019-03-12T07:20:49.976Z,80.09
2019-03-12T07:21:49.955Z,79.33
2019-03-12T07:22:49.937Z,78.26
2019-03-12T07:23:49.924Z,79.13
2019-03-12T07:24:49.931Z,79.27
2019-03-12T07:25:51.063Z,80.61
2019-03-12T07:26:49.920Z,80.96
2019-03-12T07:27:49.884Z,81.82
2019-03-12T07:28:50.898Z,82.34
2019-03-12T07:29:49.860Z,83.14
2019-03-12T07:30:49.876Z,82.20
2019-03-12T07:31:49.838Z,82.31
2019-03-12T07:32:49.828Z,82.62
2019-03-12T07:33:49.833Z,82.31
2019-03-12T07:34:49.814Z,81.96
2019-03-12T07:35:49.809Z,81.61
2019-03-12T07:36:49.836Z,81.65
2019-03-12T07:37:49.802Z,82.58
2019-03-12T07:38:49.771Z,82.23
2019-03-12T07:39:49.765Z,82.23
2019-03-12T07:40:49.746Z,81.85
2019-03-12T07:41:49.756Z,81.40
2019-03-12T07:42:49.722Z,81.51
2019-03-12T07:43:49.717Z,81.82
2019-03-12T07:44:49.698Z,81.34
2019-03-12T07:45:49.704Z,81.51
2019-03-12T07:46:49.706Z,81.40
2019-03-12T07:47:49.697Z,81.16
2019-03-12T07:48:49.739Z,77.50
2019-03-12T07:49:49.725Z,72.54
2019-03-12T07:50:49.634Z,69.15
2019-03-12T07:51:49.645Z,70.55
2019-03-12T07:52:49.617Z,72.50
2019-03-12T07:53:58.849Z,74.22
2019-03-12T07:54:50.600Z,75.81
2019-03-12T07:55:49.590Z,77.29
2019-03-12T07:56:49.610Z,77.01
2019-03-12T07:57:49.570Z,78.67
2019-03-12T07:58:49.558Z,77.22
2019-03-12T07:59:49.555Z,77.22
2019-03-12T08:00:49.537Z,77.22
2019-03-12T08:01:49.533Z,78.56
2019-03-12T08:02:49.535Z,78.95
2019-03-12T08:03:49.533Z,79.36
2019-03-12T08:04:49.490Z,80.29
2019-03-12T08:05:49.494Z,80.85
2019-03-12T08:06:49.472Z,81.26
2019-03-12T08:07:49.491Z,81.47
2019-03-12T08:08:49.465Z,81.47
2019-03-12T08:09:49.435Z,81.57
2019-03-12T08:10:49.425Z,81.47
2019-03-12T08:11:49.427Z,82.60
2019-03-12T08:12:49.441Z,82.29
2019-03-12T08:13:49.402Z,82.15
2019-03-12T08:14:49.386Z,82.50
2019-03-12T08:15:50.583Z,82.36
2019-03-12T08:16:49.366Z,82.05
2019-03-12T08:17:49.379Z,82.15
2019-03-12T08:18:49.354Z,82.09
2019-03-12T08:19:49.390Z,81.99
2019-03-12T08:20:49.326Z,82.26
2019-03-12T08:21:49.906Z,82.29
2019-03-12T08:22:49.307Z,83.23
2019-03-12T08:23:49.315Z,83.02
2019-03-12T08:24:49.284Z,82.50
2019-03-12T08:25:49.278Z,82.98
2019-03-12T08:26:49.259Z,83.61
2019-03-12T08:27:49.241Z,83.46
2019-03-12T08:28:49.247Z,83.15
2019-03-12T08:29:49.225Z,82.32
2019-03-12T08:30:49.219Z,81.70
2019-03-12T08:31:49.211Z,81.39
2019-03-12T08:32:49.196Z,81.81
2019-03-12T08:33:51.036Z,82.12
2019-03-12T08:34:49.183Z,81.49
2019-03-12T08:35:49.173Z,81.35
2019-03-12T08:36:49.152Z,80.74
2019-03-12T08:37:49.142Z,80.94
2019-03-12T08:38:49.175Z,81.56
2019-03-12T08:39:49.122Z,80.43
2019-03-12T08:40:52.703Z,80.94
2019-03-12T08:41:49.102Z,80.32
2019-03-12T08:42:54.694Z,80.32
2019-03-12T08:43:50.081Z,79.97
2019-03-12T08:44:49.067Z,79.42
2019-03-12T08:45:49.849Z,78.39
2019-03-12T08:46:49.061Z,78.80
2019-03-12T08:47:49.045Z,78.39
2019-03-12T08:48:49.040Z,78.11
2019-03-12T08:49:49.061Z,78.01
2019-03-12T08:50:49.006Z,78.84
2019-03-12T08:51:48.998Z,79.97
2019-03-12T08:52:48.988Z,79.15
2019-03-12T08:53:48.977Z,79.15
2019-03-12T08:54:54.150Z,78.80
2019-03-12T08:55:49.951Z,78.49
2019-03-12T08:56:48.939Z,78.49
2019-03-12T08:57:48.939Z,78.59
2019-03-12T08:58:48.920Z,77.77
2019-03-12T08:59:48.941Z,78.14
2019-03-12T09:00:48.900Z,78.45
2019-03-12T09:01:48.895Z,77.22
2019-03-12T09:02:48.881Z,77.01
2019-03-12T09:03:48.884Z,77.11
2019-03-12T09:04:48.870Z,76.81
2019-03-12T09:05:48.903Z,77.01
2019-03-12T09:06:48.870Z,77.04
2019-03-12T09:07:48.833Z,76.94
2019-03-12T09:08:48.820Z,77.15
2019-03-12T09:09:48.819Z,77.15
2019-03-12T09:10:48.833Z,77.29
2019-03-12T09:11:48.794Z,78.42
2019-03-12T09:12:48.800Z,78.49
2019-03-12T09:13:48.765Z,78.70
2019-03-12T09:14:48.752Z,77.56
2019-03-12T09:15:48.759Z,77.36
2019-03-12T09:16:48.770Z,76.90
2019-03-12T09:17:48.724Z,76.35
2019-03-12T09:18:48.717Z,76.01
2019-03-12T09:19:48.694Z,74.53
2019-03-12T09:20:48.684Z,73.47
2019-03-12T09:21:48.706Z,72.20
2019-03-12T09:22:48.672Z,71.55
2019-03-12T09:23:48.694Z,68.46
2019-03-12T09:24:48.669Z,67.98
2019-03-12T09:25:48.631Z,66.67
2019-03-12T09:26:48.627Z,58.01
2019-03-12T09:27:48.631Z,61.64
2019-03-12T09:28:48.755Z,66.31
2019-03-12T09:29:48.596Z,69.31
2019-03-12T09:30:48.684Z,71.61
2019-03-12T09:31:48.572Z,73.30
2019-03-12T09:32:48.572Z,72.40
2019-03-12T09:33:48.583Z,72.71
2019-03-12T09:34:48.547Z,71.13
2019-03-12T09:35:48.539Z,71.41
2019-03-12T09:36:48.532Z,70.59
2019-03-12T09:37:48.503Z,66.63
2019-03-12T09:38:48.492Z,63.90
2019-03-12T09:39:48.513Z,62.17
2019-03-12T09:40:48.472Z,59.30
2019-03-12T09:41:49.208Z,58.09
2019-03-12T09:42:48.511Z,54.41
2019-03-12T09:43:48.465Z,54.39
2019-03-12T09:44:49.222Z,56.79
2019-03-12T09:45:49.412Z,55.43
2019-03-12T09:46:48.408Z,55.46
2019-03-12T09:47:48.407Z,55.74
2019-03-12T09:48:48.391Z,56.58
2019-03-12T09:49:48.373Z,56.43
2019-03-12T09:50:48.387Z,56.89
2019-03-12T09:51:48.357Z,57.89
2019-03-12T09:52:48.338Z,58.17
2019-03-12T09:53:48.351Z,56.02
2019-03-12T09:54:48.355Z,57.76
2019-03-12T09:55:48.345Z,61.98
2019-03-12T09:56:48.344Z,62.96
2019-03-12T09:57:48.336Z,62.88
2019-03-12T09:58:48.280Z,62.04
2019-03-12T09:59:48.262Z,61.93
2019-03-12T10:00:48.274Z,61.08
2019-03-12T10:01:48.257Z,59.89
2019-03-12T10:02:48.236Z,59.18
2019-03-12T10:03:48.221Z,59.18
2019-03-12T10:04:48.215Z,60.13
2019-03-12T10:05:48.236Z,62.04
2019-03-12T10:06:48.198Z,62.85
2019-03-12T10:07:48.195Z,63.22
2019-03-12T10:08:48.246Z,62.16
2019-03-12T10:09:48.168Z,61.72
2019-03-12T10:10:48.219Z,61.76
2019-03-12T10:11:48.171Z,62.06
2019-03-12T10:12:48.138Z,62.09
2019-03-12T10:13:48.137Z,61.30
2019-03-12T10:14:48.135Z,61.81
2019-03-12T10:15:48.220Z,61.04
2019-03-12T10:16:48.098Z,61.24
2019-03-12T10:17:48.097Z,60.47
2019-03-12T10:18:48.079Z,59.52
2019-03-12T10:19:48.092Z,59.89
2019-03-12T10:20:48.063Z,59.72
2019-03-12T10:21:48.101Z,61.08
2019-03-12T10:22:48.032Z,59.98
2019-03-12T10:23:48.015Z,60.03
2019-03-12T10:24:48.013Z,58.54
2019-03-12T10:25:47.999Z,57.64
2019-03-12T10:26:48.005Z,58.51
2019-03-12T10:27:47.976Z,59.06
2019-03-12T10:28:47.970Z,59.91
2019-03-12T10:29:47.966Z,60.55
2019-03-12T10:30:47.937Z,59.98
2019-03-12T10:31:47.956Z,58.46
2019-03-12T10:32:47.912Z,56.56
2019-03-12T10:33:47.935Z,55.15
2019-03-12T10:34:47.902Z,55.08
2019-03-12T10:35:47.882Z,54.66
2019-03-12T10:36:47.908Z,56.67
2019-03-12T10:37:47.899Z,56.49
2019-03-12T10:38:47.861Z,51.65
2019-03-12T10:39:47.850Z,48.40
2019-03-12T10:45:22.361Z,50.69
2019-03-12T10:46:22.120Z,46.78
2019-03-12T10:47:22.105Z,49.32
2019-03-12T10:48:22.111Z,48.96
2019-03-12T10:49:22.093Z,47.95
2019-03-12T10:50:22.094Z,46.67
2019-03-12T10:51:22.066Z,50.50
2019-03-12T10:52:22.060Z,53.28
2019-03-12T10:53:22.048Z,49.93
2019-03-12T10:54:22.043Z,48.36
2019-03-12T10:55:22.047Z,50.94
2019-03-12T10:56:22.015Z,49.11
2019-03-12T10:57:21.996Z,48.18
2019-03-12T10:58:21.991Z,44.08
2019-03-12T10:59:21.995Z,42.92
2019-03-12T11:00:21.985Z,44.32
2019-03-12T11:01:21.962Z,47.71
2019-03-12T11:02:21.945Z,50.78
2019-03-12T11:03:21.981Z,52.51
2019-03-12T11:04:21.935Z,50.74
2019-03-12T11:05:22.043Z,47.03
2019-03-12T11:06:21.920Z,45.72
2019-03-12T11:07:21.898Z,43.16
2019-03-12T11:08:21.901Z,43.57
2019-03-12T11:09:21.937Z,43.77
2019-03-12T11:10:21.903Z,44.10
2019-03-12T11:11:21.853Z,42.39
2019-03-12T11:12:21.847Z,41.30
2019-03-12T11:13:21.840Z,40.05
2019-03-12T11:14:21.841Z,39.64
2019-03-12T11:15:21.816Z,39.73
2019-03-12T11:16:21.798Z,43.08
2019-03-12T11:17:21.809Z,46.22
2019-03-12T11:18:21.786Z,48.61
2019-03-12T11:19:21.776Z,46.41
2019-03-12T11:20:21.764Z,45.24
2019-03-12T11:21:21.736Z,43.23
2019-03-12T11:22:21.737Z,41.21
2019-03-12T11:23:21.733Z,39.50
2019-03-12T11:24:21.715Z,37.70
2019-03-12T11:25:27.074Z,38.18
2019-03-12T11:26:22.697Z,39.33
2019-03-12T11:27:21.695Z,40.34
2019-03-12T11:28:21.667Z,44.02
2019-03-12T11:29:21.675Z,45.26
2019-03-12T11:30:21.654Z,43.57
2019-03-12T11:31:21.666Z,41.21
2019-03-12T11:32:21.621Z,39.06
2019-03-12T11:33:21.610Z,39.42
2019-03-12T11:34:21.606Z,38.32
2019-03-12T11:35:21.590Z,40.75
2019-03-12T11:36:21.605Z,42.82
2019-03-12T11:37:21.600Z,45.53
2019-03-12T11:38:21.584Z,43.59
2019-03-12T11:39:21.554Z,40.32
2019-03-12T11:40:21.595Z,41.41
2019-03-12T11:41:21.533Z,43.94
2019-03-12T11:42:21.534Z,45.73
2019-03-12T11:43:21.503Z,44.94
2019-03-12T11:44:21.501Z,44.31
2019-03-12T11:45:34.779Z,45.67
2019-03-12T11:46:22.472Z,46.33
2019-03-12T11:47:22.433Z,47.66
2019-03-12T11:48:21.473Z,48.19
2019-03-12T11:49:21.459Z,46.90
2019-03-12T11:50:21.684Z,46.47
2019-03-12T11:51:21.469Z,42.45
2019-03-12T11:52:21.417Z,40.64
2019-03-12T11:53:21.422Z,39.30
2019-03-12T11:54:21.382Z,40.80
2019-03-12T11:55:21.382Z,42.92
2019-03-12T11:56:21.383Z,44.20
2019-03-12T11:57:21.382Z,45.55
2019-03-12T11:58:21.370Z,45.86
2019-03-12T11:59:21.366Z,46.59
2019-03-12T12:00:21.320Z,46.62
2019-03-12T12:01:21.308Z,46.74
2019-03-12T12:02:21.308Z,48.05
2019-03-12T12:03:21.306Z,47.27
2019-03-12T12:04:21.366Z,48.48
2019-03-12T12:05:21.280Z,46.14
2019-03-12T12:06:21.283Z,43.12
2019-03-12T12:07:21.265Z,38.57
2019-03-12T12:08:21.241Z,39.23
2019-03-12T12:09:21.249Z,38.72
2019-03-12T12:10:21.249Z,36.58
2019-03-12T12:11:21.206Z,36.21
2019-03-12T12:12:21.191Z,36.65
2019-03-12T12:13:21.185Z,37.62
2019-03-12T12:14:21.175Z,36.17
2019-03-12T12:15:21.187Z,36.61
2019-03-12T12:16:21.152Z,36.59
2019-03-12T12:17:21.149Z,35.16
2019-03-12T12:18:21.148Z,35.04
2019-03-12T12:19:21.119Z,35.46
2019-03-12T12:20:29.418Z,36.47
2019-03-12T12:21:22.119Z,39.28
2019-03-12T12:22:21.092Z,38.68
2019-03-12T12:23:21.081Z,39.82
2019-03-12T12:24:21.066Z,38.32
2019-03-12T12:25:21.051Z,38.07
2019-03-12T12:26:21.070Z,37.66
2019-03-12T12:27:21.028Z,36.37
2019-03-12T12:28:21.024Z,35.85
2019-03-12T12:29:21.015Z,35.11
2019-03-12T12:30:21.021Z,34.60
2019-03-12T12:31:21.097Z,36.69
2019-03-12T12:32:21.006Z,37.52
2019-03-12T12:33:20.965Z,36.47
2019-03-12T12:34:20.961Z,36.65
2019-03-12T12:35:20.954Z,35.26
2019-03-12T12:36:20.933Z,36.00
2019-03-12T12:37:20.940Z,35.90
2019-03-12T12:38:23.459Z,35.21
2019-03-12T12:39:20.930Z,35.33
2019-03-12T12:40:20.908Z,35.33
2019-03-12T12:41:20.882Z,36.34
2019-03-12T12:42:20.889Z,36.93
2019-03-12T12:43:20.892Z,36.12
2019-03-12T12:44:20.850Z,36.22
2019-03-12T12:45:20.835Z,35.22
2019-03-12T12:46:20.826Z,36.16
2019-03-12T12:47:20.817Z,35.61
2019-03-12T12:48:20.819Z,35.28
2019-03-12T12:49:20.824Z,34.28
2019-03-12T12:50:20.786Z,37.02
2019-03-12T12:51:20.774Z,37.77
2019-03-12T12:52:20.774Z,36.60
2019-03-12T12:53:20.783Z,36.29
2019-03-12T12:54:20.782Z,37.00
2019-03-12T12:55:20.736Z,37.99
2019-03-12T12:56:20.719Z,39.28
2019-03-12T12:57:20.732Z,41.63